sensor_id;sensor_type;location;lat;lon;timestamp;temperature;humidity
49731;DHT22;35622;52.008;5.426;2022-07-24T00:00:48;20.00;60.50
49731;DHT22;35622;52.008;5.426;2022-07-24T00:03:14;20.00;60.60
49731;DHT22;35622;52.008;5.426;2022-07-24T00:05:39;20.00;60.70
49731;DHT22;35622;52.008;5.426;2022-07-24T00:08:05;19.90;60.50
49731;DHT22;35622;52.008;5.426;2022-07-24T00:10:30;19.90;60.60
49731;DHT22;35622;52.008;5.426;2022-07-24T00:12:56;19.80;60.50
49731;DHT22;35622;52.008;5.426;2022-07-24T00:15:22;19.80;60.60
49731;DHT22;35622;52.008;5.426;2022-07-24T00:17:47;19.80;60.60
49731;DHT22;35622;52.008;5.426;2022-07-24T00:20:13;19.80;60.70
49731;DHT22;35622;52.008;5.426;2022-07-24T00:22:38;19.80;60.80
49731;DHT22;35622;52.008;5.426;2022-07-24T00:25:04;19.80;60.90
49731;DHT22;35622;52.008;5.426;2022-07-24T00:27:30;19.80;61.00
49731;DHT22;35622;52.008;5.426;2022-07-24T00:29:55;19.80;61.00
49731;DHT22;35622;52.008;5.426;2022-07-24T00:32:21;19.70;60.90
49731;DHT22;35622;52.008;5.426;2022-07-24T00:34:47;19.70;61.10
49731;DHT22;35622;52.008;5.426;2022-07-24T00:37:12;19.70;61.10
49731;DHT22;35622;52.008;5.426;2022-07-24T00:39:38;19.70;61.20
49731;DHT22;35622;52.008;5.426;2022-07-24T00:42:03;19.70;61.20
49731;DHT22;35622;52.008;5.426;2022-07-24T00:44:29;19.60;61.20
49731;DHT22;35622;52.008;5.426;2022-07-24T00:46:54;19.60;61.30
49731;DHT22;35622;52.008;5.426;2022-07-24T00:49:20;19.60;61.30
49731;DHT22;35622;52.008;5.426;2022-07-24T00:51:48;19.60;61.50
49731;DHT22;35622;52.008;5.426;2022-07-24T00:54:15;19.70;61.60
49731;DHT22;35622;52.008;5.426;2022-07-24T00:56:42;19.60;61.80
49731;DHT22;35622;52.008;5.426;2022-07-24T00:59:08;19.60;61.80
49731;DHT22;35622;52.008;5.426;2022-07-24T01:01:34;19.60;61.90
49731;DHT22;35622;52.008;5.426;2022-07-24T01:03:59;19.50;62.00
49731;DHT22;35622;52.008;5.426;2022-07-24T01:06:25;19.50;62.10
49731;DHT22;35622;52.008;5.426;2022-07-24T01:08:51;19.50;62.10
49731;DHT22;35622;52.008;5.426;2022-07-24T01:11:18;19.50;62.20
49731;DHT22;35622;52.008;5.426;2022-07-24T01:13:44;19.50;62.20
49731;DHT22;35622;52.008;5.426;2022-07-24T01:16:11;19.50;62.20
49731;DHT22;35622;52.008;5.426;2022-07-24T01:18:37;19.50;63.20
49731;DHT22;35622;52.008;5.426;2022-07-24T01:21:04;19.40;62.40
49731;DHT22;35622;52.008;5.426;2022-07-24T01:23:30;19.50;62.50
49731;DHT22;35622;52.008;5.426;2022-07-24T01:25:55;19.40;62.50
49731;DHT22;35622;52.008;5.426;2022-07-24T01:28:21;19.40;62.60
49731;DHT22;35622;52.008;5.426;2022-07-24T01:30:47;19.50;62.70
49731;DHT22;35622;52.008;5.426;2022-07-24T01:33:13;19.40;62.80
49731;DHT22;35622;52.008;5.426;2022-07-24T01:35:39;19.40;62.90
49731;DHT22;35622;52.008;5.426;2022-07-24T01:38:05;19.40;63.00
49731;DHT22;35622;52.008;5.426;2022-07-24T01:40:30;19.40;63.10
49731;DHT22;35622;52.008;5.426;2022-07-24T01:42:56;19.40;63.10
49731;DHT22;35622;52.008;5.426;2022-07-24T01:45:22;19.30;63.20
49731;DHT22;35622;52.008;5.426;2022-07-24T01:47:48;19.40;63.40
49731;DHT22;35622;52.008;5.426;2022-07-24T01:50:14;19.30;63.50
49731;DHT22;35622;52.008;5.426;2022-07-24T01:52:40;19.30;63.50
49731;DHT22;35622;52.008;5.426;2022-07-24T01:55:06;19.30;63.70
49731;DHT22;35622;52.008;5.426;2022-07-24T01:57:33;19.30;63.70
49731;DHT22;35622;52.008;5.426;2022-07-24T01:59:59;19.30;63.90
49731;DHT22;35622;52.008;5.426;2022-07-24T02:02:27;19.30;64.00
49731;DHT22;35622;52.008;5.426;2022-07-24T02:04:53;19.30;64.00
49731;DHT22;35622;52.008;5.426;2022-07-24T02:07:18;19.40;64.30
49731;DHT22;35622;52.008;5.426;2022-07-24T02:09:44;19.30;64.30
49731;DHT22;35622;52.008;5.426;2022-07-24T02:12:10;19.30;65.70
49731;DHT22;35622;52.008;5.426;2022-07-24T02:14:36;19.40;65.00
49731;DHT22;35622;52.008;5.426;2022-07-24T02:17:02;19.30;65.00
49731;DHT22;35622;52.008;5.426;2022-07-24T02:19:29;19.30;65.20
49731;DHT22;35622;52.008;5.426;2022-07-24T02:21:55;19.30;65.20
49731;DHT22;35622;52.008;5.426;2022-07-24T02:24:21;19.20;65.10
49731;DHT22;35622;52.008;5.426;2022-07-24T02:26:47;19.30;65.30
49731;DHT22;35622;52.008;5.426;2022-07-24T02:29:13;19.20;65.20
49731;DHT22;35622;52.008;5.426;2022-07-24T02:31:38;19.10;65.40
49731;DHT22;35622;52.008;5.426;2022-07-24T02:34:04;19.20;65.40
49731;DHT22;35622;52.008;5.426;2022-07-24T02:36:29;19.10;65.50
49731;DHT22;35622;52.008;5.426;2022-07-24T02:38:55;19.10;65.60
49731;DHT22;35622;52.008;5.426;2022-07-24T02:41:20;19.20;65.60
49731;DHT22;35622;52.008;5.426;2022-07-24T02:43:46;19.20;65.60
49731;DHT22;35622;52.008;5.426;2022-07-24T02:46:11;19.20;65.40
49731;DHT22;35622;52.008;5.426;2022-07-24T02:48:37;19.20;65.30
49731;DHT22;35622;52.008;5.426;2022-07-24T02:51:03;19.20;65.30
49731;DHT22;35622;52.008;5.426;2022-07-24T02:53:29;19.20;65.30
49731;DHT22;35622;52.008;5.426;2022-07-24T02:55:55;19.10;65.20
49731;DHT22;35622;52.008;5.426;2022-07-24T02:58:20;19.20;65.00
49731;DHT22;35622;52.008;5.426;2022-07-24T03:00:46;19.10;64.90
49731;DHT22;35622;52.008;5.426;2022-07-24T03:03:11;19.10;65.00
49731;DHT22;35622;52.008;5.426;2022-07-24T03:05:37;19.10;64.90
49731;DHT22;35622;52.008;5.426;2022-07-24T03:08:02;19.10;65.00
49731;DHT22;35622;52.008;5.426;2022-07-24T03:10:28;19.10;65.10
49731;DHT22;35622;52.008;5.426;2022-07-24T03:12:54;19.10;65.00
49731;DHT22;35622;52.008;5.426;2022-07-24T03:15:19;19.10;65.00
49731;DHT22;35622;52.008;5.426;2022-07-24T03:17:53;19.00;65.20
49731;DHT22;35622;52.008;5.426;2022-07-24T03:20:20;19.00;65.10
49731;DHT22;35622;52.008;5.426;2022-07-24T03:22:46;19.00;65.10
49731;DHT22;35622;52.008;5.426;2022-07-24T03:25:13;18.90;65.00
49731;DHT22;35622;52.008;5.426;2022-07-24T03:27:39;18.90;65.10
49731;DHT22;35622;52.008;5.426;2022-07-24T03:30:06;19.00;64.90
49731;DHT22;35622;52.008;5.426;2022-07-24T03:32:32;19.00;64.70
49731;DHT22;35622;52.008;5.426;2022-07-24T03:34:58;18.90;64.60
49731;DHT22;35622;52.008;5.426;2022-07-24T03:37:23;18.90;64.80
49731;DHT22;35622;52.008;5.426;2022-07-24T03:39:49;18.90;64.90
49731;DHT22;35622;52.008;5.426;2022-07-24T03:42:15;18.90;64.90
49731;DHT22;35622;52.008;5.426;2022-07-24T03:44:40;18.80;65.00
49731;DHT22;35622;52.008;5.426;2022-07-24T03:47:06;18.80;65.20
49731;DHT22;35622;52.008;5.426;2022-07-24T03:49:32;18.80;65.30
49731;DHT22;35622;52.008;5.426;2022-07-24T03:51:58;18.80;65.30
49731;DHT22;35622;52.008;5.426;2022-07-24T03:54:23;18.80;65.30
49731;DHT22;35622;52.008;5.426;2022-07-24T03:56:50;18.80;65.10
49731;DHT22;35622;52.008;5.426;2022-07-24T03:59:16;18.90;65.40
49731;DHT22;35622;52.008;5.426;2022-07-24T04:01:41;18.80;65.30
49731;DHT22;35622;52.008;5.426;2022-07-24T04:04:07;18.80;66.30
49731;DHT22;35622;52.008;5.426;2022-07-24T04:06:33;18.80;65.30
49731;DHT22;35622;52.008;5.426;2022-07-24T04:09:00;18.90;65.30
49731;DHT22;35622;52.008;5.426;2022-07-24T04:11:26;18.80;65.10
49731;DHT22;35622;52.008;5.426;2022-07-24T04:13:51;18.90;65.10
49731;DHT22;35622;52.008;5.426;2022-07-24T04:16:17;18.90;65.00
49731;DHT22;35622;52.008;5.426;2022-07-24T04:18:43;18.90;64.90
49731;DHT22;35622;52.008;5.426;2022-07-24T04:21:08;18.90;64.70
49731;DHT22;35622;52.008;5.426;2022-07-24T04:23:34;18.90;64.70
49731;DHT22;35622;52.008;5.426;2022-07-24T04:25:59;18.90;64.70
49731;DHT22;35622;52.008;5.426;2022-07-24T04:28:25;18.90;64.50
49731;DHT22;35622;52.008;5.426;2022-07-24T04:30:51;18.90;64.50
49731;DHT22;35622;52.008;5.426;2022-07-24T04:33:16;18.90;64.50
49731;DHT22;35622;52.008;5.426;2022-07-24T04:35:42;18.90;64.50
49731;DHT22;35622;52.008;5.426;2022-07-24T04:38:08;18.90;64.50
49731;DHT22;35622;52.008;5.426;2022-07-24T04:40:33;18.90;64.40
49731;DHT22;35622;52.008;5.426;2022-07-24T04:42:59;18.90;64.50
49731;DHT22;35622;52.008;5.426;2022-07-24T04:45:24;19.00;64.50
49731;DHT22;35622;52.008;5.426;2022-07-24T04:47:50;19.10;64.60
49731;DHT22;35622;52.008;5.426;2022-07-24T04:50:15;19.10;64.50
49731;DHT22;35622;52.008;5.426;2022-07-24T04:52:41;19.20;64.50
49731;DHT22;35622;52.008;5.426;2022-07-24T04:55:08;19.20;64.40
49731;DHT22;35622;52.008;5.426;2022-07-24T04:57:33;19.30;64.20
49731;DHT22;35622;52.008;5.426;2022-07-24T04:59:59;19.40;64.20
49731;DHT22;35622;52.008;5.426;2022-07-24T05:02:24;19.50;64.20
49731;DHT22;35622;52.008;5.426;2022-07-24T05:04:50;19.60;64.10
49731;DHT22;35622;52.008;5.426;2022-07-24T05:07:15;19.60;64.00
49731;DHT22;35622;52.008;5.426;2022-07-24T05:09:41;19.70;64.10
49731;DHT22;35622;52.008;5.426;2022-07-24T05:12:07;19.80;64.20
49731;DHT22;35622;52.008;5.426;2022-07-24T05:14:32;19.90;64.10
49731;DHT22;35622;52.008;5.426;2022-07-24T05:16:58;20.10;63.90
49731;DHT22;35622;52.008;5.426;2022-07-24T05:19:23;20.20;63.80
49731;DHT22;35622;52.008;5.426;2022-07-24T05:21:49;20.30;63.90
49731;DHT22;35622;52.008;5.426;2022-07-24T05:24:14;20.60;63.80
49731;DHT22;35622;52.008;5.426;2022-07-24T05:26:40;20.90;63.10
49731;DHT22;35622;52.008;5.426;2022-07-24T05:29:05;21.00;62.20
49731;DHT22;35622;52.008;5.426;2022-07-24T05:31:32;21.10;61.90
49731;DHT22;35622;52.008;5.426;2022-07-24T05:33:58;21.30;61.70
49731;DHT22;35622;52.008;5.426;2022-07-24T05:36:24;21.70;61.70
49731;DHT22;35622;52.008;5.426;2022-07-24T05:38:50;22.60;60.10
49731;DHT22;35622;52.008;5.426;2022-07-24T05:41:16;23.10;57.90
49731;DHT22;35622;52.008;5.426;2022-07-24T05:43:42;23.20;56.80
49731;DHT22;35622;52.008;5.426;2022-07-24T05:46:08;23.20;56.80
49731;DHT22;35622;52.008;5.426;2022-07-24T05:48:33;23.20;56.60
49731;DHT22;35622;52.008;5.426;2022-07-24T05:50:59;23.30;55.90
49731;DHT22;35622;52.008;5.426;2022-07-24T05:53:25;23.20;57.20
49731;DHT22;35622;52.008;5.426;2022-07-24T05:55:51;23.20;57.10
49731;DHT22;35622;52.008;5.426;2022-07-24T05:58:17;23.30;57.30
49731;DHT22;35622;52.008;5.426;2022-07-24T06:00:43;23.30;57.70
49731;DHT22;35622;52.008;5.426;2022-07-24T06:03:08;23.30;58.20
49731;DHT22;35622;52.008;5.426;2022-07-24T06:05:34;23.50;58.40
49731;DHT22;35622;52.008;5.426;2022-07-24T06:07:59;23.70;58.00
49731;DHT22;35622;52.008;5.426;2022-07-24T06:10:25;24.00;57.70
49731;DHT22;35622;52.008;5.426;2022-07-24T06:12:51;24.50;57.70
49731;DHT22;35622;52.008;5.426;2022-07-24T06:15:16;26.10;56.40
49731;DHT22;35622;52.008;5.426;2022-07-24T06:17:42;28.90;49.60
49731;DHT22;35622;52.008;5.426;2022-07-24T06:20:09;31.70;42.90
49731;DHT22;35622;52.008;5.426;2022-07-24T06:22:38;34.10;37.40
49731;DHT22;35622;52.008;5.426;2022-07-24T06:25:04;36.30;33.40
49731;DHT22;35622;52.008;5.426;2022-07-24T06:27:29;38.20;29.60
49731;DHT22;35622;52.008;5.426;2022-07-24T06:29:55;39.80;27.60
49731;DHT22;35622;52.008;5.426;2022-07-24T06:32:20;41.20;25.80
49731;DHT22;35622;52.008;5.426;2022-07-24T06:34:46;42.30;23.70
49731;DHT22;35622;52.008;5.426;2022-07-24T06:37:12;43.20;22.70
49731;DHT22;35622;52.008;5.426;2022-07-24T06:39:37;44.20;22.20
49731;DHT22;35622;52.008;5.426;2022-07-24T06:42:03;45.10;21.30
49731;DHT22;35622;52.008;5.426;2022-07-24T06:44:28;45.90;20.40
49731;DHT22;35622;52.008;5.426;2022-07-24T06:46:54;46.30;18.50
49731;DHT22;35622;52.008;5.426;2022-07-24T06:49:20;46.40;19.00
49731;DHT22;35622;52.008;5.426;2022-07-24T06:51:45;46.70;18.90
49731;DHT22;35622;52.008;5.426;2022-07-24T06:54:13;46.80;18.20
49731;DHT22;35622;52.008;5.426;2022-07-24T06:56:38;47.40;18.50
49731;DHT22;35622;52.008;5.426;2022-07-24T06:59:04;48.00;18.10
49731;DHT22;35622;52.008;5.426;2022-07-24T07:01:29;48.70;17.30
49731;DHT22;35622;52.008;5.426;2022-07-24T07:03:55;49.30;17.10
49731;DHT22;35622;52.008;5.426;2022-07-24T07:06:21;49.80;16.10
49731;DHT22;35622;52.008;5.426;2022-07-24T07:08:46;49.70;15.90
49731;DHT22;35622;52.008;5.426;2022-07-24T07:11:12;49.90;16.20
49731;DHT22;35622;52.008;5.426;2022-07-24T07:13:37;50.00;15.90
49731;DHT22;35622;52.008;5.426;2022-07-24T07:16:03;50.10;15.50
49731;DHT22;35622;52.008;5.426;2022-07-24T07:18:29;50.30;15.10
49731;DHT22;35622;52.008;5.426;2022-07-24T07:20:54;50.50;15.60
49731;DHT22;35622;52.008;5.426;2022-07-24T07:23:24;50.70;14.40
49731;DHT22;35622;52.008;5.426;2022-07-24T07:25:52;50.90;15.10
49731;DHT22;35622;52.008;5.426;2022-07-24T07:28:19;50.80;14.60
49731;DHT22;35622;52.008;5.426;2022-07-24T07:30:44;51.20;15.00
49731;DHT22;35622;52.008;5.426;2022-07-24T07:33:10;51.60;14.30
49731;DHT22;35622;52.008;5.426;2022-07-24T07:35:36;51.90;14.40
49731;DHT22;35622;52.008;5.426;2022-07-24T07:38:02;52.30;13.50
49731;DHT22;35622;52.008;5.426;2022-07-24T07:40:27;52.60;13.40
49731;DHT22;35622;52.008;5.426;2022-07-24T07:42:53;52.70;13.20
49731;DHT22;35622;52.008;5.426;2022-07-24T07:45:19;52.90;12.50
49731;DHT22;35622;52.008;5.426;2022-07-24T07:47:45;53.00;13.70
49731;DHT22;35622;52.008;5.426;2022-07-24T07:50:11;52.30;13.70
49731;DHT22;35622;52.008;5.426;2022-07-24T07:52:37;51.00;13.80
49731;DHT22;35622;52.008;5.426;2022-07-24T07:55:03;50.90;14.50
49731;DHT22;35622;52.008;5.426;2022-07-24T07:57:29;51.50;14.70
49731;DHT22;35622;52.008;5.426;2022-07-24T07:59:55;52.10;13.70
49731;DHT22;35622;52.008;5.426;2022-07-24T08:02:20;52.50;13.60
49731;DHT22;35622;52.008;5.426;2022-07-24T08:04:46;52.90;13.10
49731;DHT22;35622;52.008;5.426;2022-07-24T08:07:11;53.10;12.80
49731;DHT22;35622;52.008;5.426;2022-07-24T08:09:37;53.50;13.10
49731;DHT22;35622;52.008;5.426;2022-07-24T08:12:03;53.60;12.70
49731;DHT22;35622;52.008;5.426;2022-07-24T08:14:29;53.90;12.20
49731;DHT22;35622;52.008;5.426;2022-07-24T08:16:55;54.40;12.30
49731;DHT22;35622;52.008;5.426;2022-07-24T08:19:20;55.00;12.20
49731;DHT22;35622;52.008;5.426;2022-07-24T08:21:46;55.00;11.30
49731;DHT22;35622;52.008;5.426;2022-07-24T08:24:12;55.20;11.80
49731;DHT22;35622;52.008;5.426;2022-07-24T08:26:38;54.50;11.00
49731;DHT22;35622;52.008;5.426;2022-07-24T08:29:03;55.00;11.30
49731;DHT22;35622;52.008;5.426;2022-07-24T08:31:29;55.70;11.50
49731;DHT22;35622;52.008;5.426;2022-07-24T08:33:55;55.30;11.10
49731;DHT22;35622;52.008;5.426;2022-07-24T08:36:20;53.20;12.10
49731;DHT22;35622;52.008;5.426;2022-07-24T08:38:46;51.90;13.10
49731;DHT22;35622;52.008;5.426;2022-07-24T08:41:13;51.00;14.30
49731;DHT22;35622;52.008;5.426;2022-07-24T08:43:38;51.30;13.90
49731;DHT22;35622;52.008;5.426;2022-07-24T08:46:08;51.90;13.60
49731;DHT22;35622;52.008;5.426;2022-07-24T08:48:34;53.10;13.40
49731;DHT22;35622;52.008;5.426;2022-07-24T08:51:01;54.20;12.30
49731;DHT22;35622;52.008;5.426;2022-07-24T08:53:27;54.30;11.70
49731;DHT22;35622;52.008;5.426;2022-07-24T08:55:53;54.10;11.10
49731;DHT22;35622;52.008;5.426;2022-07-24T08:58:18;54.30;11.50
49731;DHT22;35622;52.008;5.426;2022-07-24T09:00:45;54.60;11.90
49731;DHT22;35622;52.008;5.426;2022-07-24T09:03:11;54.10;11.10
49731;DHT22;35622;52.008;5.426;2022-07-24T09:05:58;54.60;11.00
49731;DHT22;35622;52.008;5.426;2022-07-24T09:08:24;55.20;11.20
49731;DHT22;35622;52.008;5.426;2022-07-24T09:10:57;55.20;11.50
49731;DHT22;35622;52.008;5.426;2022-07-24T09:13:29;56.00;10.60
49731;DHT22;35622;52.008;5.426;2022-07-24T09:15:58;56.30;10.70
49731;DHT22;35622;52.008;5.426;2022-07-24T09:18:32;55.90;10.70
49731;DHT22;35622;52.008;5.426;2022-07-24T09:21:11;56.30;11.20
49731;DHT22;35622;52.008;5.426;2022-07-24T09:23:39;56.90;10.30
49731;DHT22;35622;52.008;5.426;2022-07-24T09:26:04;57.40;9.80
49731;DHT22;35622;52.008;5.426;2022-07-24T09:28:46;57.40;9.80
49731;DHT22;35622;52.008;5.426;2022-07-24T09:31:11;57.40;9.70
49731;DHT22;35622;52.008;5.426;2022-07-24T09:33:37;57.80;9.70
49731;DHT22;35622;52.008;5.426;2022-07-24T09:36:11;58.10;9.60
49731;DHT22;35622;52.008;5.426;2022-07-24T09:38:37;57.90;9.10
49731;DHT22;35622;52.008;5.426;2022-07-24T09:41:03;57.50;9.50
49731;DHT22;35622;52.008;5.426;2022-07-24T09:43:30;57.20;10.30
49731;DHT22;35622;52.008;5.426;2022-07-24T09:48:31;57.70;9.70
49731;DHT22;35622;52.008;5.426;2022-07-24T09:51:00;57.30;9.90
49731;DHT22;35622;52.008;5.426;2022-07-24T09:53:29;57.80;9.90
49731;DHT22;35622;52.008;5.426;2022-07-24T09:58:31;58.10;9.50
49731;DHT22;35622;52.008;5.426;2022-07-24T10:00:58;57.60;8.80
49731;DHT22;35622;52.008;5.426;2022-07-24T10:03:28;57.20;9.20
49731;DHT22;35622;52.008;5.426;2022-07-24T10:06:05;57.50;8.90
49731;DHT22;35622;52.008;5.426;2022-07-24T10:08:32;57.60;9.20
49731;DHT22;35622;52.008;5.426;2022-07-24T10:10:58;56.90;9.50
49731;DHT22;35622;52.008;5.426;2022-07-24T10:13:25;57.10;9.00
49731;DHT22;35622;52.008;5.426;2022-07-24T10:18:50;56.70;9.70
49731;DHT22;35622;52.008;5.426;2022-07-24T10:21:18;56.60;9.40
49731;DHT22;35622;52.008;5.426;2022-07-24T10:26:41;56.90;9.80
49731;DHT22;35622;52.008;5.426;2022-07-24T10:29:16;57.10;9.90
49731;DHT22;35622;52.008;5.426;2022-07-24T10:31:44;56.70;9.10
49731;DHT22;35622;52.008;5.426;2022-07-24T10:37:22;57.50;8.70
49731;DHT22;35622;52.008;5.426;2022-07-24T10:42:15;57.20;9.70
49731;DHT22;35622;52.008;5.426;2022-07-24T10:44:41;56.90;9.40
49731;DHT22;35622;52.008;5.426;2022-07-24T10:47:11;56.10;9.30
49731;DHT22;35622;52.008;5.426;2022-07-24T10:49:44;56.00;9.50
49731;DHT22;35622;52.008;5.426;2022-07-24T10:55:34;56.10;10.00
49731;DHT22;35622;52.008;5.426;2022-07-24T10:57:52;56.40;9.70
49731;DHT22;35622;52.008;5.426;2022-07-24T11:00:25;56.60;10.10
49731;DHT22;35622;52.008;5.426;2022-07-24T11:03:08;56.20;9.40
49731;DHT22;35622;52.008;5.426;2022-07-24T11:05:42;55.20;9.50
49731;DHT22;35622;52.008;5.426;2022-07-24T11:10:53;55.60;10.20
49731;DHT22;35622;52.008;5.426;2022-07-24T11:18:36;55.60;9.90
49731;DHT22;35622;52.008;5.426;2022-07-24T11:21:02;56.00;10.00
49731;DHT22;35622;52.008;5.426;2022-07-24T11:23:28;56.80;10.10
49731;DHT22;35622;52.008;5.426;2022-07-24T11:29:19;57.00;9.00
49731;DHT22;35622;52.008;5.426;2022-07-24T11:32:10;57.20;9.70
49731;DHT22;35622;52.008;5.426;2022-07-24T11:34:36;57.40;9.70
49731;DHT22;35622;52.008;5.426;2022-07-24T11:37:04;56.90;9.40
49731;DHT22;35622;52.008;5.426;2022-07-24T11:39:36;56.60;9.20
49731;DHT22;35622;52.008;5.426;2022-07-24T11:42:04;56.60;9.30
49731;DHT22;35622;52.008;5.426;2022-07-24T11:44:35;56.50;9.90
49731;DHT22;35622;52.008;5.426;2022-07-24T11:47:21;56.60;9.70
49731;DHT22;35622;52.008;5.426;2022-07-24T11:49:51;56.10;9.80
49731;DHT22;35622;52.008;5.426;2022-07-24T11:52:21;56.00;9.70
49731;DHT22;35622;52.008;5.426;2022-07-24T11:54:49;55.50;10.10
49731;DHT22;35622;52.008;5.426;2022-07-24T11:57:37;55.30;10.50
49731;DHT22;35622;52.008;5.426;2022-07-24T12:00:05;55.20;10.30
49731;DHT22;35622;52.008;5.426;2022-07-24T12:02:32;55.50;10.60
49731;DHT22;35622;52.008;5.426;2022-07-24T12:04:57;55.60;10.50
49731;DHT22;35622;52.008;5.426;2022-07-24T12:07:25;55.40;10.10
49731;DHT22;35622;52.008;5.426;2022-07-24T12:09:55;54.60;10.60
49731;DHT22;35622;52.008;5.426;2022-07-24T12:12:32;54.00;10.30
49731;DHT22;35622;52.008;5.426;2022-07-24T12:15:08;53.60;11.30
49731;DHT22;35622;52.008;5.426;2022-07-24T12:20:20;53.00;11.60
49731;DHT22;35622;52.008;5.426;2022-07-24T12:22:46;52.90;11.50
49731;DHT22;35622;52.008;5.426;2022-07-24T12:25:13;53.20;11.90
49731;DHT22;35622;52.008;5.426;2022-07-24T12:27:44;52.60;11.40
49731;DHT22;35622;52.008;5.426;2022-07-24T12:30:27;52.20;11.70
49731;DHT22;35622;52.008;5.426;2022-07-24T12:32:57;52.00;12.50
49731;DHT22;35622;52.008;5.426;2022-07-24T12:35:24;51.70;12.10
49731;DHT22;35622;52.008;5.426;2022-07-24T12:37:50;50.30;12.70
49731;DHT22;35622;52.008;5.426;2022-07-24T12:40:33;49.20;14.50
49731;DHT22;35622;52.008;5.426;2022-07-24T12:43:08;47.80;15.30
49731;DHT22;35622;52.008;5.426;2022-07-24T12:45:34;46.50;16.30
49731;DHT22;35622;52.008;5.426;2022-07-24T12:48:19;45.00;16.70
49731;DHT22;35622;52.008;5.426;2022-07-24T12:51:00;43.50;18.30
49731;DHT22;35622;52.008;5.426;2022-07-24T12:53:28;42.70;19.50
49731;DHT22;35622;52.008;5.426;2022-07-24T12:56:09;41.50;19.50
49731;DHT22;35622;52.008;5.426;2022-07-24T12:59:00;40.90;20.70
49731;DHT22;35622;52.008;5.426;2022-07-24T13:01:42;40.20;21.60
49731;DHT22;35622;52.008;5.426;2022-07-24T13:04:09;39.70;22.10
49731;DHT22;35622;52.008;5.426;2022-07-24T13:06:39;39.30;23.10
49731;DHT22;35622;52.008;5.426;2022-07-24T13:09:05;39.00;24.00
49731;DHT22;35622;52.008;5.426;2022-07-24T13:11:31;38.70;23.60
49731;DHT22;35622;52.008;5.426;2022-07-24T13:13:57;38.00;24.10
49731;DHT22;35622;52.008;5.426;2022-07-24T13:16:27;37.60;24.70
49731;DHT22;35622;52.008;5.426;2022-07-24T13:18:53;37.40;24.30
49731;DHT22;35622;52.008;5.426;2022-07-24T13:21:18;37.00;24.70
49731;DHT22;35622;52.008;5.426;2022-07-24T13:23:44;36.90;26.10
49731;DHT22;35622;52.008;5.426;2022-07-24T13:26:10;36.90;26.40
49731;DHT22;35622;52.008;5.426;2022-07-24T13:28:36;36.80;27.60
49731;DHT22;35622;52.008;5.426;2022-07-24T13:31:01;36.70;26.60
49731;DHT22;35622;52.008;5.426;2022-07-24T13:33:27;36.50;25.90
49731;DHT22;35622;52.008;5.426;2022-07-24T13:35:53;36.10;26.60
49731;DHT22;35622;52.008;5.426;2022-07-24T13:38:18;36.10;27.20
49731;DHT22;35622;52.008;5.426;2022-07-24T13:40:44;36.00;26.50
49731;DHT22;35622;52.008;5.426;2022-07-24T13:43:10;36.00;26.80
49731;DHT22;35622;52.008;5.426;2022-07-24T13:45:35;36.10;26.90
49731;DHT22;35622;52.008;5.426;2022-07-24T13:48:01;36.20;27.20
49731;DHT22;35622;52.008;5.426;2022-07-24T13:50:26;36.20;28.80
49731;DHT22;35622;52.008;5.426;2022-07-24T13:52:52;35.80;26.80
49731;DHT22;35622;52.008;5.426;2022-07-24T13:55:18;36.00;27.50
49731;DHT22;35622;52.008;5.426;2022-07-24T13:57:44;36.00;26.90
49731;DHT22;35622;52.008;5.426;2022-07-24T14:00:10;36.10;27.60
49731;DHT22;35622;52.008;5.426;2022-07-24T14:02:35;36.20;26.70
49731;DHT22;35622;52.008;5.426;2022-07-24T14:05:01;36.10;27.60
49731;DHT22;35622;52.008;5.426;2022-07-24T14:07:27;35.90;27.40
49731;DHT22;35622;52.008;5.426;2022-07-24T14:09:52;35.60;27.40
49731;DHT22;35622;52.008;5.426;2022-07-24T14:12:20;35.60;28.20
49731;DHT22;35622;52.008;5.426;2022-07-24T14:14:46;35.70;27.80
49731;DHT22;35622;52.008;5.426;2022-07-24T14:17:11;35.90;27.50
49731;DHT22;35622;52.008;5.426;2022-07-24T14:19:38;35.90;28.60
49731;DHT22;35622;52.008;5.426;2022-07-24T14:22:04;35.30;27.00
49731;DHT22;35622;52.008;5.426;2022-07-24T14:24:29;34.70;27.50
49731;DHT22;35622;52.008;5.426;2022-07-24T14:26:55;34.90;28.40
49731;DHT22;35622;52.008;5.426;2022-07-24T14:29:20;35.00;28.30
49731;DHT22;35622;52.008;5.426;2022-07-24T14:31:46;35.00;28.30
49731;DHT22;35622;52.008;5.426;2022-07-24T14:34:17;35.00;28.20
49731;DHT22;35622;52.008;5.426;2022-07-24T14:36:43;34.90;27.60
49731;DHT22;35622;52.008;5.426;2022-07-24T14:39:09;34.90;27.60
49731;DHT22;35622;52.008;5.426;2022-07-24T14:41:35;35.10;28.00
49731;DHT22;35622;52.008;5.426;2022-07-24T14:44:02;35.20;28.50
49731;DHT22;35622;52.008;5.426;2022-07-24T14:46:28;35.40;28.80
49731;DHT22;35622;52.008;5.426;2022-07-24T14:48:53;35.30;28.30
49731;DHT22;35622;52.008;5.426;2022-07-24T14:51:19;35.10;27.50
49731;DHT22;35622;52.008;5.426;2022-07-24T14:53:44;35.00;29.00
49731;DHT22;35622;52.008;5.426;2022-07-24T14:56:10;35.10;29.00
49731;DHT22;35622;52.008;5.426;2022-07-24T14:58:36;35.10;28.70
49731;DHT22;35622;52.008;5.426;2022-07-24T15:01:01;35.20;29.60
49731;DHT22;35622;52.008;5.426;2022-07-24T15:03:27;35.10;29.00
49731;DHT22;35622;52.008;5.426;2022-07-24T15:05:53;35.20;29.00
49731;DHT22;35622;52.008;5.426;2022-07-24T15:08:19;34.90;28.40
49731;DHT22;35622;52.008;5.426;2022-07-24T15:10:44;34.80;30.00
49731;DHT22;35622;52.008;5.426;2022-07-24T15:13:10;34.90;28.80
49731;DHT22;35622;52.008;5.426;2022-07-24T15:15:36;34.80;28.30
49731;DHT22;35622;52.008;5.426;2022-07-24T15:18:02;34.70;28.10
49731;DHT22;35622;52.008;5.426;2022-07-24T15:20:28;34.60;28.40
49731;DHT22;35622;52.008;5.426;2022-07-24T15:22:54;34.80;28.60
49731;DHT22;35622;52.008;5.426;2022-07-24T15:25:19;34.50;28.50
49731;DHT22;35622;52.008;5.426;2022-07-24T15:27:45;34.20;29.20
49731;DHT22;35622;52.008;5.426;2022-07-24T15:30:16;34.30;31.00
49731;DHT22;35622;52.008;5.426;2022-07-24T15:32:42;34.00;29.40
49731;DHT22;35622;52.008;5.426;2022-07-24T15:35:08;34.20;29.90
49731;DHT22;35622;52.008;5.426;2022-07-24T15:37:34;34.10;30.70
49731;DHT22;35622;52.008;5.426;2022-07-24T15:39:59;34.10;30.60
49731;DHT22;35622;52.008;5.426;2022-07-24T15:42:25;34.00;29.60
49731;DHT22;35622;52.008;5.426;2022-07-24T15:44:51;34.10;30.00
49731;DHT22;35622;52.008;5.426;2022-07-24T15:47:17;34.00;29.40
49731;DHT22;35622;52.008;5.426;2022-07-24T15:49:42;34.00;29.60
49731;DHT22;35622;52.008;5.426;2022-07-24T15:52:08;34.10;29.80
49731;DHT22;35622;52.008;5.426;2022-07-24T15:54:34;34.10;29.80
49731;DHT22;35622;52.008;5.426;2022-07-24T15:57:00;34.10;30.00
49731;DHT22;35622;52.008;5.426;2022-07-24T15:59:25;34.00;30.10
49731;DHT22;35622;52.008;5.426;2022-07-24T16:01:51;34.00;29.40
49731;DHT22;35622;52.008;5.426;2022-07-24T16:04:17;33.80;29.70